createdAt,value
2019-02-05T00:02:02.165Z,99.90
2019-02-05T00:04:32.091Z,99.90
2019-02-05T00:07:01.850Z,99.90
2019-02-05T00:09:31.633Z,99.90
2019-02-05T00:12:01.737Z,99.90
2019-02-05T00:14:31.518Z,99.90
2019-02-05T00:17:01.242Z,99.90
2019-02-05T00:19:30.981Z,99.90
2019-02-05T00:22:00.605Z,99.90
2019-02-05T00:24:30.300Z,99.90
2019-02-05T00:27:00.417Z,99.90
2019-02-05T00:29:30.138Z,99.90
2019-02-05T00:31:59.864Z,99.90
2019-02-05T00:34:29.664Z,99.90
2019-02-05T00:36:59.337Z,99.90
2019-02-05T00:39:29.090Z,99.90
2019-02-05T00:41:59.081Z,99.90
2019-02-05T00:44:28.717Z,99.90
2019-02-05T00:46:58.512Z,99.90
2019-02-05T00:49:28.240Z,99.90
2019-02-05T00:51:58.329Z,99.90
2019-02-05T00:54:28.033Z,99.90
2019-02-05T00:56:57.733Z,99.90
2019-02-05T00:59:27.614Z,99.90
2019-02-05T01:01:57.408Z,99.90
2019-02-05T01:04:27.162Z,99.90
2019-02-05T01:06:56.897Z,99.90
2019-02-05T01:09:26.825Z,99.90
2019-02-05T01:11:56.620Z,99.90
2019-02-05T01:14:26.301Z,99.90
2019-02-05T01:16:56.159Z,99.90
2019-02-05T01:19:25.934Z,99.90
2019-02-05T01:21:55.753Z,99.90
2019-02-05T01:24:25.659Z,99.90
2019-02-05T01:26:55.373Z,99.90
2019-02-05T01:29:25.532Z,99.90
2019-02-05T01:31:55.265Z,99.90
2019-02-05T01:34:24.997Z,99.90
2019-02-05T01:36:54.645Z,99.90
2019-02-05T01:39:24.295Z,99.90
2019-02-05T01:41:54.058Z,99.90
2019-02-05T01:44:23.805Z,99.90
2019-02-05T01:46:55.739Z,99.90
2019-02-05T01:49:25.529Z,99.90
2019-02-05T01:51:55.597Z,99.90
2019-02-05T01:54:25.314Z,99.90
2019-02-05T01:56:55.028Z,99.90
2019-02-05T01:59:24.801Z,99.90
2019-02-05T02:01:54.685Z,99.90
2019-02-05T02:04:24.466Z,99.90
2019-02-05T02:06:54.483Z,99.90
2019-02-05T02:09:24.248Z,99.90
2019-02-05T02:11:54.549Z,99.90
2019-02-05T02:14:24.526Z,99.90
2019-02-05T02:16:54.416Z,99.90
2019-02-05T02:19:24.217Z,99.90
2019-02-05T02:21:54.087Z,99.90
2019-02-05T02:24:23.817Z,99.90
2019-02-05T02:26:53.520Z,99.90
2019-02-05T02:29:23.289Z,99.90
2019-02-05T02:31:53.021Z,99.90
2019-02-05T02:34:22.733Z,99.90
2019-02-05T02:36:52.423Z,99.90
2019-02-05T02:39:22.222Z,99.90
2019-02-05T02:41:52.010Z,99.90
2019-02-05T02:44:21.793Z,99.90
2019-02-05T02:46:51.501Z,99.90
2019-02-05T02:49:21.595Z,99.90
2019-02-05T02:51:51.297Z,99.90
2019-02-05T02:54:21.082Z,99.90
2019-02-05T02:56:50.766Z,99.90
2019-02-05T02:59:20.530Z,99.90
2019-02-05T03:01:51.596Z,99.90
2019-02-05T03:04:21.528Z,99.90
2019-02-05T03:06:51.276Z,99.90
2019-02-05T03:09:21.091Z,99.90
2019-02-05T03:11:50.941Z,99.90
2019-02-05T03:14:20.652Z,99.90
2019-02-05T03:16:50.497Z,99.90
2019-02-05T03:19:20.226Z,99.90
2019-02-05T03:21:49.950Z,99.90
2019-02-05T03:24:20.011Z,99.90
2019-02-05T03:26:49.723Z,99.90
2019-02-05T03:29:19.394Z,99.90
2019-02-05T03:31:49.090Z,99.90
2019-02-05T03:34:18.792Z,99.90
2019-02-05T03:36:48.994Z,99.90
2019-02-05T03:39:21.117Z,99.90
2019-02-05T03:41:50.917Z,99.90
2019-02-05T03:44:20.652Z,99.90
2019-02-05T03:46:50.918Z,99.90
2019-02-05T03:49:20.603Z,99.90
2019-02-05T03:52:20.953Z,99.90
2019-02-05T03:55:46.628Z,99.90
2019-02-05T03:58:55.705Z,99.90
2019-02-05T04:02:04.173Z,99.90
2019-02-05T04:05:20.993Z,99.90
2019-02-05T04:08:49.265Z,99.90
2019-02-05T04:11:43.270Z,99.90
2019-02-05T04:14:54.369Z,99.90
2019-02-05T04:17:39.928Z,99.90
2019-02-05T04:21:11.714Z,99.90
2019-02-05T04:24:07.733Z,99.90
2019-02-05T04:27:21.523Z,99.90
2019-02-05T04:30:11.550Z,99.90
2019-02-05T04:33:13.093Z,99.90
2019-02-05T04:36:02.042Z,99.90
2019-02-05T04:38:56.631Z,99.90
2019-02-05T04:41:49.297Z,99.90
2019-02-05T04:44:55.729Z,99.90
2019-02-05T04:47:47.149Z,99.90
2019-02-05T04:51:03.053Z,99.90
2019-02-05T04:54:08.402Z,99.90
2019-02-05T04:57:00.184Z,99.90
2019-02-05T05:00:10.910Z,99.90
2019-02-05T05:03:04.344Z,99.90
2019-02-05T05:06:20.050Z,99.90
2019-02-05T05:09:37.257Z,99.90
2019-02-05T05:12:07.085Z,99.90
2019-02-05T05:14:36.864Z,99.90
2019-02-05T05:17:06.627Z,99.90
2019-02-05T05:19:36.335Z,99.90
2019-02-05T05:22:06.498Z,99.90
2019-02-05T05:24:36.513Z,99.90
2019-02-05T05:27:07.074Z,99.90
2019-02-05T05:29:36.970Z,99.90
2019-02-05T05:32:07.084Z,99.90
2019-02-05T05:34:36.950Z,99.90
2019-02-05T05:37:04.910Z,99.90
2019-02-05T05:39:34.578Z,99.90
2019-02-05T05:42:04.380Z,99.90
2019-02-05T05:44:34.118Z,99.90
2019-02-05T05:47:04.025Z,99.90
2019-02-05T05:49:33.792Z,99.90
2019-02-05T05:52:03.616Z,99.90
2019-02-05T05:54:33.412Z,99.90
2019-02-05T05:57:03.173Z,99.90
2019-02-05T05:59:32.913Z,99.90
2019-02-05T06:02:03.080Z,99.90
2019-02-05T06:04:32.833Z,99.90
2019-02-05T06:07:02.588Z,99.90
2019-02-05T06:09:32.413Z,99.90
2019-02-05T06:12:02.161Z,99.90
2019-02-05T06:14:31.904Z,99.90
2019-02-05T06:17:01.746Z,99.90
2019-02-05T06:19:31.541Z,99.90
2019-02-05T06:22:01.279Z,99.90
2019-02-05T06:24:31.111Z,99.90
2019-02-05T06:27:00.978Z,99.90
2019-02-05T06:29:30.705Z,99.90
2019-02-05T06:32:00.453Z,99.90
2019-02-05T06:34:30.235Z,99.90
2019-02-05T06:36:59.961Z,99.90
2019-02-05T06:39:29.605Z,99.90
2019-02-05T06:41:59.406Z,99.90
2019-02-05T06:44:29.118Z,99.90
2019-02-05T06:46:58.818Z,99.90
2019-02-05T06:49:28.640Z,99.90
2019-02-05T06:51:58.427Z,99.90
2019-02-05T06:54:28.106Z,99.90
2019-02-05T06:56:57.826Z,99.90
2019-02-05T06:59:27.694Z,99.90
2019-02-05T07:01:57.457Z,99.90
2019-02-05T07:04:27.528Z,99.90
2019-02-05T07:06:57.330Z,99.90
2019-02-05T07:09:27.434Z,99.90
2019-02-05T07:11:57.200Z,99.90
2019-02-05T07:14:27.029Z,99.90
2019-02-05T07:16:56.811Z,99.90
2019-02-05T07:19:26.745Z,99.90
2019-02-05T07:21:56.484Z,99.90
2019-02-05T07:24:26.197Z,99.90
2019-02-05T07:26:55.961Z,99.90
2019-02-05T07:29:25.773Z,99.90
2019-02-05T07:31:55.528Z,99.90
2019-02-05T07:34:25.580Z,99.90
2019-02-05T07:36:55.382Z,99.90
2019-02-05T07:39:27.545Z,99.90
2019-02-05T07:41:56.461Z,99.90
2019-02-05T07:44:26.242Z,99.90
2019-02-05T07:46:56.020Z,99.90
2019-02-05T07:49:25.719Z,99.90
2019-02-05T07:51:55.725Z,99.90
2019-02-05T07:54:25.461Z,99.90
2019-02-05T07:56:55.274Z,99.90
2019-02-05T07:59:24.977Z,99.90
2019-02-05T08:01:54.790Z,99.90
2019-02-05T08:04:24.569Z,99.90
2019-02-05T08:06:54.230Z,99.90
2019-02-05T08:09:24.227Z,99.90
2019-02-05T08:11:53.987Z,99.90
2019-02-05T08:14:23.727Z,99.90
2019-02-05T08:16:53.434Z,99.90
2019-02-05T08:19:23.253Z,99.90
2019-02-05T08:21:52.875Z,99.90
2019-02-05T08:24:22.580Z,99.90
2019-02-05T08:26:52.610Z,99.90
2019-02-05T08:29:22.311Z,99.90
2019-02-05T08:31:52.070Z,99.90
2019-02-05T08:34:21.867Z,99.90
2019-02-05T08:36:51.665Z,99.90
2019-02-05T08:39:21.429Z,99.90
2019-02-05T08:41:53.649Z,99.90
2019-02-05T08:44:23.310Z,99.90
2019-02-05T08:46:53.082Z,99.90
2019-02-05T08:49:22.817Z,99.90
2019-02-05T08:51:52.522Z,99.90
2019-02-05T08:54:22.192Z,99.90
2019-02-05T08:56:51.932Z,99.90
2019-02-05T08:59:22.149Z,99.90
2019-02-05T09:01:51.848Z,99.90
2019-02-05T09:04:21.638Z,99.90
2019-02-05T09:06:51.301Z,99.90
2019-02-05T09:09:21.376Z,99.90
2019-02-05T09:11:51.185Z,99.90
2019-02-05T09:14:21.401Z,99.90
2019-02-05T09:16:51.117Z,99.90
2019-02-05T09:19:20.853Z,99.90
2019-02-05T09:21:50.549Z,99.90
2019-02-05T09:24:20.290Z,99.90
2019-02-05T09:26:50.034Z,99.90
2019-02-05T09:29:19.710Z,99.90
2019-02-05T09:31:49.458Z,99.90
2019-02-05T09:34:19.193Z,99.90
2019-02-05T09:36:48.901Z,99.90
2019-02-05T09:39:19.455Z,99.90
2019-02-05T09:41:49.283Z,99.90
2019-02-05T09:44:19.112Z,99.90
2019-02-05T09:46:49.081Z,99.90
2019-02-05T09:49:18.821Z,99.90
2019-02-05T09:51:48.514Z,99.90
2019-02-05T09:54:18.288Z,99.90
2019-02-05T09:56:48.018Z,99.90
2019-02-05T09:59:17.687Z,99.90
2019-02-05T10:01:47.789Z,99.90
2019-02-05T10:04:17.513Z,99.90
2019-02-05T10:06:49.982Z,99.90
2019-02-05T10:09:18.994Z,99.90
2019-02-05T10:11:48.785Z,99.90
2019-02-05T10:14:18.576Z,99.90
2019-02-05T10:16:48.383Z,99.90
2019-02-05T10:19:18.129Z,99.90
2019-02-05T10:21:47.828Z,99.90
2019-02-05T10:24:17.725Z,99.90
2019-02-05T10:26:47.460Z,99.90
2019-02-05T10:29:17.170Z,99.90
2019-02-05T10:31:46.934Z,99.90
2019-02-05T10:34:16.585Z,99.90
2019-02-05T10:36:46.441Z,99.90
2019-02-05T10:39:16.222Z,99.90
2019-02-05T10:41:45.902Z,99.90
2019-02-05T10:44:15.608Z,99.90
2019-02-05T10:46:45.249Z,95.90
2019-02-05T10:49:15.227Z,93.70
2019-02-05T10:51:44.947Z,99.20
2019-02-05T10:54:14.749Z,97.10
2019-02-05T10:56:44.517Z,94.30
2019-02-05T10:59:14.315Z,69.70
2019-02-05T11:01:44.108Z,77.60
2019-02-05T11:04:14.287Z,70.90
2019-02-05T11:06:44.049Z,83.10
2019-02-05T11:09:15.715Z,64.50
2019-02-05T11:11:45.708Z,69.20
2019-02-05T11:14:15.328Z,59.00
2019-02-05T11:16:45.073Z,61.00
2019-02-05T11:19:14.874Z,55.90
2019-02-05T11:21:44.666Z,54.50
2019-02-05T11:24:14.457Z,50.70
2019-02-05T11:26:44.170Z,47.10
2019-02-05T11:29:13.927Z,44.80
2019-02-05T11:31:43.710Z,44.10
2019-02-05T11:34:13.409Z,39.10
2019-02-05T11:36:43.506Z,40.00
2019-02-05T11:39:16.878Z,42.40
2019-02-05T11:41:46.778Z,43.50
2019-02-05T11:44:16.666Z,42.30
2019-02-05T11:46:48.746Z,41.90
2019-02-05T11:49:18.413Z,42.70
2019-02-05T11:51:48.206Z,44.10
2019-02-05T11:54:18.050Z,44.40
2019-02-05T11:56:47.773Z,41.00
2019-02-05T11:59:17.505Z,44.40
2019-02-05T12:01:47.338Z,42.20
2019-02-05T12:04:17.149Z,39.80
2019-02-05T12:06:47.721Z,41.10
2019-02-05T12:09:20.826Z,40.50
2019-02-05T12:11:50.641Z,42.40
2019-02-05T12:14:20.325Z,45.50
2019-02-05T12:16:50.148Z,50.50
2019-02-05T12:19:19.991Z,47.80
2019-02-05T12:21:49.854Z,47.30
2019-02-05T12:24:20.670Z,48.50
2019-02-05T12:26:50.373Z,52.90
2019-02-05T12:29:20.081Z,43.20
2019-02-05T12:31:49.893Z,42.20
2019-02-05T12:34:19.606Z,40.10
2019-02-05T12:36:49.229Z,40.70
2019-02-05T12:39:21.904Z,35.90
2019-02-05T12:41:51.641Z,36.50
2019-02-05T12:44:23.057Z,41.10
2019-02-05T12:46:52.922Z,35.40
2019-02-05T12:49:22.670Z,38.60
2019-02-05T12:51:52.445Z,36.90
2019-02-05T12:54:22.240Z,40.40
2019-02-05T12:56:51.952Z,41.30
2019-02-05T12:59:21.769Z,40.00
2019-02-05T13:01:51.512Z,40.30
2019-02-05T13:04:21.318Z,41.90
2019-02-05T13:06:51.346Z,41.70
2019-02-05T13:09:21.114Z,40.30
2019-02-05T13:11:50.944Z,38.70
2019-02-05T13:14:20.721Z,39.50
2019-02-05T13:16:50.537Z,42.30
2019-02-05T13:19:20.154Z,38.90
2019-02-05T13:21:50.080Z,37.80
2019-02-05T13:24:19.840Z,39.20
2019-02-05T13:26:49.512Z,39.40
2019-02-05T13:29:19.149Z,37.20
2019-02-05T13:31:48.900Z,39.40
2019-02-05T13:34:18.582Z,41.50
2019-02-05T13:36:48.369Z,39.50
2019-02-05T13:39:18.077Z,40.40
2019-02-05T13:41:47.780Z,39.50
2019-02-05T13:44:17.511Z,39.40
2019-02-05T13:46:47.291Z,36.30
2019-02-05T13:49:17.120Z,37.30
2019-02-05T13:51:46.789Z,39.00
2019-02-05T13:54:16.556Z,40.70
2019-02-05T13:56:46.283Z,39.80
2019-02-05T13:59:16.079Z,40.10
2019-02-05T14:01:45.797Z,41.30
2019-02-05T14:04:15.926Z,40.60
2019-02-05T14:06:45.719Z,43.30
2019-02-05T14:09:15.485Z,44.80
2019-02-05T14:11:45.321Z,44.10
2019-02-05T14:14:15.093Z,47.00
2019-02-05T14:16:44.881Z,43.90
2019-02-05T14:19:14.903Z,45.80
2019-02-05T14:21:44.678Z,44.30
2019-02-05T14:24:14.426Z,46.80
2019-02-05T14:26:44.097Z,46.30
2019-02-05T14:29:13.882Z,50.50
2019-02-05T14:31:43.670Z,50.10
2019-02-05T14:34:13.712Z,54.30
2019-02-05T14:36:43.503Z,53.10
2019-02-05T14:39:13.389Z,56.50
2019-02-05T14:41:43.247Z,55.90
2019-02-05T14:44:12.879Z,61.80
2019-02-05T14:46:42.662Z,58.50
2019-02-05T14:49:12.670Z,79.40
2019-02-05T14:51:42.497Z,84.30
2019-02-05T14:54:12.209Z,94.10
2019-02-05T14:56:41.996Z,92.00
2019-02-05T14:59:11.754Z,85.90
2019-02-05T15:01:43.318Z,99.80
2019-02-05T15:04:12.942Z,99.90
2019-02-05T15:06:42.709Z,96.40
2019-02-05T15:09:12.726Z,95.60
2019-02-05T15:11:44.998Z,96.40
2019-02-05T15:14:14.754Z,99.90
2019-02-05T15:16:44.634Z,93.30
2019-02-05T15:19:14.362Z,98.70
2019-02-05T15:21:44.177Z,97.80
2019-02-05T15:24:13.936Z,99.90
2019-02-05T15:26:43.648Z,93.20
2019-02-05T15:29:13.366Z,99.90
2019-02-05T15:31:53.874Z,98.80
2019-02-05T15:34:19.797Z,92.90
2019-02-05T15:36:50.795Z,94.20
2019-02-05T15:39:20.635Z,96.90
2019-02-05T15:41:50.244Z,99.50
2019-02-05T15:44:19.974Z,99.90
2019-02-05T15:46:49.749Z,99.90
2019-02-05T15:49:19.501Z,99.90
2019-02-05T15:51:49.273Z,99.90
2019-02-05T15:54:18.926Z,99.90
2019-02-05T15:56:48.884Z,99.90
2019-02-05T15:59:18.504Z,99.90
2019-02-05T16:01:48.273Z,99.90
2019-02-05T16:04:17.978Z,99.90
2019-02-05T16:06:47.753Z,99.90
2019-02-05T16:09:17.774Z,99.90
2019-02-05T16:11:47.835Z,99.90
2019-02-05T16:14:17.598Z,99.90
2019-02-05T16:16:47.384Z,99.90
2019-02-05T16:19:17.270Z,99.90
2019-02-05T16:21:47.060Z,99.90
2019-02-05T16:24:16.800Z,99.90
2019-02-05T16:26:47.118Z,99.90
2019-02-05T16:29:16.838Z,99.90
2019-02-05T16:31:46.532Z,99.90
2019-02-05T16:34:16.435Z,99.90
2019-02-05T16:36:48.547Z,99.90
2019-02-05T16:39:17.629Z,99.90
2019-02-05T16:41:47.742Z,99.90
2019-02-05T16:44:17.574Z,99.90
2019-02-05T16:46:47.282Z,99.90
2019-02-05T16:49:16.958Z,99.90
2019-02-05T16:51:46.823Z,99.90
2019-02-05T16:54:16.582Z,99.90
2019-02-05T16:56:46.285Z,99.90
2019-02-05T16:59:16.033Z,99.90
2019-02-05T17:01:47.484Z,99.90
2019-02-05T17:04:17.122Z,99.90
2019-02-05T17:06:46.933Z,99.90
2019-02-05T17:09:17.783Z,99.90
2019-02-05T17:11:47.572Z,99.90
2019-02-05T17:14:17.385Z,99.90
2019-02-05T17:16:47.162Z,99.90
2019-02-05T17:19:16.915Z,99.90
2019-02-05T17:21:46.718Z,99.90
2019-02-05T17:24:16.733Z,99.90
2019-02-05T17:26:46.550Z,99.90
2019-02-05T17:29:16.266Z,99.90
2019-02-05T17:31:46.024Z,99.90
2019-02-05T17:34:15.661Z,99.90
2019-02-05T17:36:45.433Z,99.90
2019-02-05T17:39:15.361Z,99.90
2019-02-05T17:41:45.216Z,99.90
2019-02-05T17:44:14.978Z,99.90
2019-02-05T17:46:44.715Z,99.90
2019-02-05T17:49:14.383Z,99.90
2019-02-05T17:51:44.273Z,99.90
2019-02-05T17:54:15.213Z,99.90
2019-02-05T17:56:45.101Z,99.90
2019-02-05T17:59:14.940Z,99.90
2019-02-05T18:01:44.605Z,99.90
2019-02-05T18:04:14.374Z,99.90
2019-02-05T18:06:44.094Z,99.90
2019-02-05T18:09:13.913Z,99.90
2019-02-05T18:11:43.601Z,99.90
2019-02-05T18:14:13.408Z,99.90
2019-02-05T18:16:45.215Z,99.90
2019-02-05T18:19:14.625Z,99.90
2019-02-05T18:21:44.769Z,99.90
2019-02-05T18:24:14.561Z,99.90
2019-02-05T18:26:44.333Z,99.90
2019-02-05T18:29:14.068Z,99.90
2019-02-05T18:31:43.693Z,99.90
2019-02-05T18:34:14.887Z,99.90
2019-02-05T18:36:44.832Z,99.90
2019-02-05T18:39:14.477Z,99.90
2019-02-05T18:41:44.217Z,99.90
2019-02-05T18:44:13.932Z,99.90
2019-02-05T18:46:43.713Z,99.90
2019-02-05T18:49:13.460Z,99.90
2019-02-05T18:51:43.301Z,99.90
2019-02-05T18:54:13.449Z,99.90
2019-02-05T18:56:43.264Z,99.90
2019-02-05T18:59:30.336Z,99.90
2019-02-05T19:02:00.366Z,99.90
2019-02-05T19:04:30.157Z,99.90
2019-02-05T19:06:59.900Z,99.90
2019-02-05T19:09:29.588Z,99.90
2019-02-05T19:12:01.766Z,99.90
2019-02-05T19:14:30.782Z,99.90
2019-02-05T19:17:00.493Z,99.90
2019-02-05T19:19:30.280Z,99.90
2019-02-05T19:22:00.119Z,99.90
2019-02-05T19:24:49.571Z,99.90
2019-02-05T19:27:19.618Z,99.90
2019-02-05T19:29:49.305Z,99.90
2019-02-05T19:32:22.686Z,99.90
2019-02-05T19:34:52.478Z,99.90
2019-02-05T19:37:22.221Z,99.90
2019-02-05T19:39:52.283Z,99.90
2019-02-05T19:42:22.047Z,99.90
2019-02-05T19:45:25.484Z,99.90
2019-02-05T19:47:55.901Z,99.90
2019-02-05T19:50:25.707Z,99.90
2019-02-05T19:52:55.414Z,99.90
2019-02-05T19:55:25.241Z,99.90
2019-02-05T19:57:55.288Z,99.90
2019-02-05T20:00:25.034Z,99.90
2019-02-05T20:02:55.584Z,99.90
2019-02-05T20:05:25.472Z,99.90
2019-02-05T20:07:55.270Z,99.90
2019-02-05T20:10:25.172Z,99.90
2019-02-05T20:12:55.014Z,99.90
2019-02-05T20:15:24.788Z,99.90
2019-02-05T20:17:54.546Z,99.90
2019-02-05T20:20:24.312Z,99.90
2019-02-05T20:22:54.378Z,99.90
2019-02-05T20:25:24.161Z,99.90
2019-02-05T20:27:53.984Z,99.90
2019-02-05T20:30:24.006Z,99.90
2019-02-05T20:32:53.697Z,99.90
2019-02-05T20:35:23.456Z,99.90
2019-02-05T20:37:53.461Z,99.90
2019-02-05T20:40:23.222Z,99.90
2019-02-05T20:42:53.230Z,99.90
2019-02-05T20:45:23.131Z,99.90
2019-02-05T20:47:55.929Z,99.90
2019-02-05T20:50:24.561Z,99.90
2019-02-05T20:52:54.712Z,99.90
2019-02-05T20:55:24.561Z,99.90
2019-02-05T20:57:54.318Z,99.90
2019-02-05T21:00:24.305Z,99.90
2019-02-05T21:02:54.045Z,99.90
2019-02-05T21:05:23.862Z,99.90
2019-02-05T21:07:53.912Z,99.90
2019-02-05T21:10:24.129Z,99.90
2019-02-05T21:12:54.012Z,99.90
2019-02-05T21:15:24.064Z,99.90
2019-02-05T21:17:53.812Z,99.90
2019-02-05T21:20:29.701Z,99.90
2019-02-05T21:22:56.904Z,99.90
2019-02-05T21:25:28.104Z,99.90
2019-02-05T21:27:58.644Z,99.90
2019-02-05T21:30:28.870Z,99.90
2019-02-05T21:32:58.641Z,99.90
2019-02-05T21:35:28.431Z,99.90
2019-02-05T21:37:58.571Z,99.90
2019-02-05T21:40:31.342Z,99.90
2019-02-05T21:43:00.131Z,99.90
2019-02-05T21:45:29.957Z,99.90
2019-02-05T21:47:59.719Z,99.90
2019-02-05T21:50:29.553Z,99.90
2019-02-05T21:52:59.737Z,99.90
2019-02-05T21:55:29.630Z,99.90
2019-02-05T21:57:59.450Z,99.90
2019-02-05T22:00:30.519Z,99.90
2019-02-05T22:03:02.663Z,99.90
2019-02-05T22:05:32.438Z,99.90
2019-02-05T22:08:02.574Z,99.90
2019-02-05T22:10:32.347Z,99.90
2019-02-05T22:13:02.155Z,99.90
2019-02-05T22:15:32.249Z,99.90
2019-02-05T22:18:02.050Z,99.90
2019-02-05T22:20:33.166Z,99.90
2019-02-05T22:23:02.871Z,99.90
2019-02-05T22:25:32.910Z,99.90
2019-02-05T22:28:02.628Z,99.90
2019-02-05T22:30:33.630Z,99.90
2019-02-05T22:33:03.630Z,99.90
2019-02-05T22:35:33.320Z,99.90
2019-02-05T22:38:03.123Z,99.90
2019-02-05T22:40:32.873Z,99.90
2019-02-05T22:43:03.012Z,99.90
2019-02-05T22:45:33.004Z,99.90
2019-02-05T22:48:02.737Z,99.90
2019-02-05T22:50:33.278Z,99.90
2019-02-05T22:53:03.504Z,99.90
2019-02-05T22:55:33.503Z,99.90
2019-02-05T22:58:03.288Z,99.90
2019-02-05T23:00:48.477Z,99.90
2019-02-05T23:03:24.501Z,99.90
2019-02-05T23:06:11.900Z,99.90
2019-02-05T23:08:41.672Z,99.90
2019-02-05T23:11:42.467Z,99.90
2019-02-05T23:14:12.274Z,99.90
2019-02-05T23:16:42.059Z,99.90
2019-02-05T23:19:11.826Z,99.90
2019-02-05T23:21:41.944Z,99.90
2019-02-05T23:24:11.756Z,99.90
2019-02-05T23:26:41.548Z,99.90
2019-02-05T23:29:11.354Z,99.90
2019-02-05T23:31:41.114Z,99.90
2019-02-05T23:34:10.864Z,99.90
2019-02-05T23:36:40.658Z,99.90
2019-02-05T23:39:11.173Z,99.90
2019-02-05T23:41:40.965Z,99.90
2019-02-05T23:44:10.843Z,99.90
2019-02-05T23:46:40.643Z,99.90
2019-02-05T23:49:10.518Z,99.90
2019-02-05T23:51:40.345Z,99.90
2019-02-05T23:54:10.412Z,99.90
2019-02-05T23:56:40.175Z,99.90
2019-02-05T23:59:09.990Z,99.90
